Time,TemperatureF,DewpointF,PressureIn,WindDirection,WindDirectionDegrees,WindSpeedMPH,WindSpeedGustMPH,Humidity,HourlyPrecipIn,Conditions,Clouds,dailyrainin,SoftwareType,DateUTC
2013-04-26 00:01:00,51.9,30.6,30.34,SSW,200,0.0,3.0,44,0.00,,,0.00,HR-IXPWINDi_r2_v1.2.,2013-04-26 04:01:00,
2013-04-26 00:06:00,51.9,30.1,30.34,SSW,200,0.0,3.0,43,0.00,,,0.00,HR-IXPWINDi_r2_v1.2.,2013-04-26 04:06:00,
2013-04-26 00:11:00,51.8,31.1,30.34,SE,141,0.0,2.0,45,0.00,,,0.00,HR-IXPWINDi_r2_v1.2.,2013-04-26 04:11:00,
2013-04-26 00:16:00,51.6,31.5,30.34,SE,141,1.0,2.0,46,0.00,,,0.00,HR-IXPWINDi_r2_v1.2.,2013-04-26 04:16:00,
2013-04-26 00:21:00,51.3,31.7,30.34,SE,141,1.0,2.0,47,0.00,,,0.00,HR-IXPWINDi_r2_v1.2.,2013-04-26 04:21:00,
2013-04-26 00:26:00,51.0,30.9,30.34,SE,141,0.0,2.0,46,0.00,,,0.00,HR-IXPWINDi_r2_v1.2.,2013-04-26 04:26:00,
2013-04-26 00:32:00,50.9,30.3,30.34,East,92,2.0,3.0,45,0.00,,,0.00,HR-IXPWINDi_r2_v1.2.,2013-04-26 04:32:00,
2013-04-26 00:37:00,50.8,31.3,30.35,East,94,0.0,3.0,47,0.00,,,0.00,HR-IXPWINDi_r2_v1.2.,2013-04-26 04:37:00,
2013-04-26 00:42:00,50.7,31.7,30.35,East,99,2.0,3.0,48,0.00,,,0.00,HR-IXPWINDi_r2_v1.2.,2013-04-26 04:42:00,
2013-04-26 00:47:00,50.4,31.4,30.35,SSE,161,0.0,3.0,48,0.00,,,0.00,HR-IXPWINDi_r2_v1.2.,2013-04-26 04:47:00,
2013-04-26 00:52:00,50.4,32.9,30.35,SSE,167,0.0,3.0,51,0.00,,,0.00,HR-IXPWINDi_r2_v1.2.,2013-04-26 04:52:00,
2013-04-26 00:58:00,50.1,32.2,30.35,South,172,1.0,2.0,50,0.00,,,0.00,HR-IXPWINDi_r2_v1.2.,2013-04-26 04:58:00,
2013-04-26 01:03:00,49.9,33.4,30.35,South,172,1.0,2.0,53,0.00,,,0.00,HR-IXPWINDi_r2_v1.2.,2013-04-26 05:03:00,
2013-04-26 01:08:00,49.7,33.2,30.36,South,170,2.0,3.0,53,0.00,,,0.00,HR-IXPWINDi_r2_v1.2.,2013-04-26 05:08:00,
2013-04-26 01:13:00,49.4,33.0,30.35,South,172,0.0,3.0,53,0.00,,,0.00,HR-IXPWINDi_r2_v1.2.,2013-04-26 05:13:00,
2013-04-26 01:19:00,49.1,33.1,30.35,South,173,2.0,3.0,54,0.00,,,0.00,HR-IXPWINDi_r2_v1.2.,2013-04-26 05:19:00,
2013-04-26 01:24:00,48.8,33.3,30.36,South,173,0.0,3.0,55,0.00,,,0.00,HR-IXPWINDi_r2_v1.2.,2013-04-26 05:24:00,
2013-04-26 01:29:00,48.6,34.0,30.36,SSE,150,0.0,3.0,57,0.00,,,0.00,HR-IXPWINDi_r2_v1.2.,2013-04-26 05:29:00,
2013-04-26 01:34:00,48.3,33.7,30.36,SSE,150,0.0,3.0,57,0.00,,,0.00,HR-IXPWINDi_r2_v1.2.,2013-04-26 05:34:00,
2013-04-26 01:39:00,48.0,33.5,30.36,SSE,150,0.0,2.0,57,0.00,,,0.00,HR-IXPWINDi_r2_v1.2.,2013-04-26 05:39:00,
2013-04-26 01:45:00,47.8,35.0,30.36,SSE,150,0.0,1.0,61,0.00,,,0.00,HR-IXPWINDi_r2_v1.2.,2013-04-26 05:45:00,
2013-04-26 01:50:00,47.4,33.8,30.36,SSE,150,0.0,1.0,59,0.00,,,0.00,HR-IXPWINDi_r2_v1.2.,2013-04-26 05:50:00,
2013-04-26 01:55:00,47.1,34.3,30.36,SSE,150,1.0,2.0,61,0.00,,,0.00,HR-IXPWINDi_r2_v1.2.,2013-04-26 05:55:00,
2013-04-26 02:00:00,46.8,34.8,30.36,SSE,150,0.0,2.0,63,0.00,,,0.00,HR-IXPWINDi_r2_v1.2.,2013-04-26 06:00:00,
2013-04-26 02:05:00,46.5,34.2,30.36,SSE,150,0.0,2.0,62,0.00,,,0.00,HR-IXPWINDi_r2_v1.2.,2013-04-26 06:05:00,
2013-04-26 02:11:00,46.4,32.4,30.36,SSE,150,0.0,1.0,58,0.00,,,0.00,HR-IXPWINDi_r2_v1.2.,2013-04-26 06:11:00,
2013-04-26 02:16:00,46.3,34.8,30.36,SSE,150,0.0,1.0,64,0.00,,,0.00,HR-IXPWINDi_r2_v1.2.,2013-04-26 06:16:00,
2013-04-26 02:21:00,46.0,32.0,30.36,SSE,150,0.0,0.0,58,0.00,,,0.00,HR-IXPWINDi_r2_v1.2.,2013-04-26 06:21:00,
2013-04-26 02:26:00,46.0,33.3,30.36,WSW,247,0.0,2.0,61,0.00,,,0.00,HR-IXPWINDi_r2_v1.2.,2013-04-26 06:26:00,
2013-04-26 02:31:00,46.0,32.4,30.36,WSW,247,0.0,2.0,59,0.00,,,0.00,HR-IXPWINDi_r2_v1.2.,2013-04-26 06:31:00,
2013-04-26 02:36:00,46.1,31.7,30.36,WSW,247,0.0,0.0,57,0.00,,,0.00,HR-IXPWINDi_r2_v1.2.,2013-04-26 06:36:00,
2013-04-26 02:42:00,46.2,32.2,30.36,WSW,247,0.0,0.0,58,0.00,,,0.00,HR-IXPWINDi_r2_v1.2.,2013-04-26 06:42:00,
2013-04-26 02:47:00,46.2,31.3,30.36,South,190,0.0,3.0,56,0.00,,,0.00,HR-IXPWINDi_r2_v1.2.,2013-04-26 06:47:00,
2013-04-26 02:52:00,46.2,32.6,30.36,South,190,0.0,3.0,59,0.00,,,0.00,HR-IXPWINDi_r2_v1.2.,2013-04-26 06:52:00,
2013-04-26 02:57:00,46.1,32.1,30.36,South,190,0.0,2.0,58,0.00,,,0.00,HR-IXPWINDi_r2_v1.2.,2013-04-26 06:57:00,
2013-04-26 03:03:00,46.2,33.1,30.36,South,190,0.0,4.0,60,0.00,,,0.00,HR-IXPWINDi_r2_v1.2.,2013-04-26 07:03:00,
2013-04-26 03:08:00,46.1,32.5,30.36,South,190,0.0,4.0,59,0.00,,,0.00,HR-IXPWINDi_r2_v1.2.,2013-04-26 07:08:00,
2013-04-26 03:13:00,45.9,32.8,30.36,South,190,0.0,0.0,60,0.00,,,0.00,HR-IXPWINDi_r2_v1.2.,2013-04-26 07:13:00,
2013-04-26 03:18:00,45.7,33.0,30.36,South,190,0.0,1.0,61,0.00,,,0.00,HR-IXPWINDi_r2_v1.2.,2013-04-26 07:18:00,
2013-04-26 03:23:00,45.3,35.0,30.36,South,190,0.0,1.0,67,0.00,,,0.00,HR-IXPWINDi_r2_v1.2.,2013-04-26 07:23:00,
2013-04-26 03:28:00,45.0,33.5,30.36,South,190,0.0,0.0,64,0.00,,,0.00,HR-IXPWINDi_r2_v1.2.,2013-04-26 07:28:00,
2013-04-26 03:33:00,44.6,32.8,30.36,South,190,0.0,2.0,63,0.00,,,0.00,HR-IXPWINDi_r2_v1.2.,2013-04-26 07:33:00,
2013-04-26 03:38:00,44.3,33.2,30.36,South,190,0.0,2.0,65,0.00,,,0.00,HR-IXPWINDi_r2_v1.2.,2013-04-26 07:38:00,
2013-04-26 03:44:00,44.1,33.4,30.36,South,190,0.0,1.0,66,0.00,,,0.00,HR-IXPWINDi_r2_v1.2.,2013-04-26 07:44:00,
2013-04-26 03:49:00,43.8,33.2,30.36,South,190,0.0,1.0,66,0.00,,,0.00,HR-IXPWINDi_r2_v1.2.,2013-04-26 07:49:00,
2013-04-26 03:54:00,43.5,32.9,30.36,South,190,0.0,2.0,66,0.00,,,0.00,HR-IXPWINDi_r2_v1.2.,2013-04-26 07:54:00,
2013-04-26 03:59:00,43.2,33.3,30.36,South,190,0.0,2.0,68,0.00,,,0.00,HR-IXPWINDi_r2_v1.2.,2013-04-26 07:59:00,
2013-04-26 04:04:00,42.9,33.4,30.36,South,190,0.0,2.0,69,0.00,,,0.00,HR-IXPWINDi_r2_v1.2.,2013-04-26 08:04:00,
2013-04-26 04:09:00,42.7,33.9,30.36,South,190,0.0,2.0,71,0.00,,,0.00,HR-IXPWINDi_r2_v1.2.,2013-04-26 08:09:00,
2013-04-26 04:15:00,42.4,34.0,30.36,South,190,2.0,2.0,72,0.00,,,0.00,HR-IXPWINDi_r2_v1.2.,2013-04-26 08:15:00,
2013-04-26 04:20:00,42.2,33.4,30.37,South,190,0.0,3.0,71,0.00,,,0.00,HR-IXPWINDi_r2_v1.2.,2013-04-26 08:20:00,
2013-04-26 04:25:00,42.0,33.6,30.37,South,190,0.0,3.0,72,0.00,,,0.00,HR-IXPWINDi_r2_v1.2.,2013-04-26 08:25:00,
2013-04-26 04:31:00,41.8,33.7,30.37,South,190,0.0,1.0,73,0.00,,,0.00,HR-IXPWINDi_r2_v1.2.,2013-04-26 08:31:00,
2013-04-26 04:35:00,41.6,33.6,30.37,South,190,0.0,0.0,73,0.00,,,0.00,HR-IXPWINDi_r2_v1.2.,2013-04-26 08:35:00,
2013-04-26 04:41:00,41.4,33.0,30.37,South,190,0.0,0.0,72,0.00,,,0.00,HR-IXPWINDi_r2_v1.2.,2013-04-26 08:41:00,
2013-04-26 04:46:00,41.3,33.3,30.37,South,190,0.0,0.0,73,0.00,,,0.00,HR-IXPWINDi_r2_v1.2.,2013-04-26 08:46:00,
2013-04-26 04:51:00,40.9,33.6,30.37,South,190,0.0,2.0,75,0.00,,,0.00,HR-IXPWINDi_r2_v1.2.,2013-04-26 08:51:00,
2013-04-26 04:56:00,40.6,33.9,30.37,South,190,0.0,2.0,77,0.00,,,0.00,HR-IXPWINDi_r2_v1.2.,2013-04-26 08:56:00,
2013-04-26 05:01:00,40.4,33.4,30.37,South,190,0.0,1.0,76,0.00,,,0.00,HR-IXPWINDi_r2_v1.2.,2013-04-26 09:01:00,
2013-04-26 05:07:00,40.1,32.8,30.38,South,190,0.0,0.0,75,0.00,,,0.00,HR-IXPWINDi_r2_v1.2.,2013-04-26 09:07:00,
2013-04-26 05:12:00,39.8,32.8,30.38,South,190,0.0,1.0,76,0.00,,,0.00,HR-IXPWINDi_r2_v1.2.,2013-04-26 09:12:00,
2013-04-26 05:17:00,39.8,33.1,30.38,South,190,0.0,1.0,77,0.00,,,0.00,HR-IXPWINDi_r2_v1.2.,2013-04-26 09:17:00,
2013-04-26 05:22:00,39.7,33.1,30.38,South,190,0.0,1.0,77,0.00,,,0.00,HR-IXPWINDi_r2_v1.2.,2013-04-26 09:22:00,
2013-04-26 05:27:00,39.7,33.1,30.38,South,190,0.0,1.0,77,0.00,,,0.00,HR-IXPWINDi_r2_v1.2.,2013-04-26 09:27:00,
2013-04-26 05:32:00,39.5,33.2,30.38,South,190,0.0,1.0,78,0.00,,,0.00,HR-IXPWINDi_r2_v1.2.,2013-04-26 09:32:00,
2013-04-26 05:38:00,39.3,33.0,30.38,South,190,0.0,1.0,78,0.00,,,0.00,HR-IXPWINDi_r2_v1.2.,2013-04-26 09:38:00,
2013-04-26 05:43:00,39.4,33.1,30.39,South,190,0.0,1.0,78,0.00,,,0.00,HR-IXPWINDi_r2_v1.2.,2013-04-26 09:43:00,
2013-04-26 05:48:00,39.4,33.4,30.39,South,190,0.0,1.0,79,0.00,,,0.00,HR-IXPWINDi_r2_v1.2.,2013-04-26 09:48:00,
2013-04-26 05:53:00,39.3,33.6,30.39,South,190,0.0,0.0,80,0.00,,,0.00,HR-IXPWINDi_r2_v1.2.,2013-04-26 09:53:00,
2013-04-26 05:58:00,39.1,33.7,30.39,South,190,0.0,0.0,81,0.00,,,0.00,HR-IXPWINDi_r2_v1.2.,2013-04-26 09:58:00,
2013-04-26 06:03:00,38.8,33.7,30.39,South,190,0.0,0.0,82,0.00,,,0.00,HR-IXPWINDi_r2_v1.2.,2013-04-26 10:03:00,
2013-04-26 06:08:00,38.5,33.1,30.39,South,190,0.0,0.0,81,0.00,,,0.00,HR-IXPWINDi_r2_v1.2.,2013-04-26 10:08:00,
2013-04-26 06:14:00,38.3,33.0,30.39,South,190,0.0,1.0,81,0.00,,,0.00,HR-IXPWINDi_r2_v1.2.,2013-04-26 10:14:00,
2013-04-26 06:19:00,38.1,32.8,30.40,South,190,0.0,1.0,81,0.00,,,0.00,HR-IXPWINDi_r2_v1.2.,2013-04-26 10:19:00,
2013-04-26 06:24:00,38.0,33.3,30.40,South,190,0.0,1.0,83,0.00,,,0.00,HR-IXPWINDi_r2_v1.2.,2013-04-26 10:24:00,
2013-04-26 06:29:00,37.9,33.2,30.40,South,190,0.0,1.0,83,0.00,,,0.00,HR-IXPWINDi_r2_v1.2.,2013-04-26 10:29:00,
2013-04-26 06:34:00,37.8,33.1,30.40,South,190,0.0,1.0,83,0.00,,,0.00,HR-IXPWINDi_r2_v1.2.,2013-04-26 10:34:00,
2013-04-26 06:39:00,37.7,33.3,30.40,South,190,0.0,0.0,84,0.00,,,0.00,HR-IXPWINDi_r2_v1.2.,2013-04-26 10:39:00,
2013-04-26 06:44:00,37.6,33.2,30.41,South,190,0.0,0.0,84,0.00,,,0.00,HR-IXPWINDi_r2_v1.2.,2013-04-26 10:44:00,
2013-04-26 06:50:00,37.5,33.1,30.41,South,190,0.0,0.0,84,0.00,,,0.00,HR-IXPWINDi_r2_v1.2.,2013-04-26 10:50:00,
2013-04-26 06:55:00,37.4,33.0,30.42,South,190,0.0,0.0,84,0.00,,,0.00,HR-IXPWINDi_r2_v1.2.,2013-04-26 10:55:00,
2013-04-26 07:00:00,37.3,33.2,30.42,South,190,0.0,0.0,85,0.00,,,0.00,HR-IXPWINDi_r2_v1.2.,2013-04-26 11:00:00,
2013-04-26 07:05:00,37.2,33.1,30.42,South,190,0.0,0.0,85,0.00,,,0.00,HR-IXPWINDi_r2_v1.2.,2013-04-26 11:05:00,
2013-04-26 07:10:00,37.3,33.2,30.43,South,190,0.0,0.0,85,0.00,,,0.00,HR-IXPWINDi_r2_v1.2.,2013-04-26 11:10:00,
2013-04-26 07:15:00,37.4,33.6,30.43,ENE,71,0.0,0.0,86,0.00,,,0.00,HR-IXPWINDi_r2_v1.2.,2013-04-26 11:15:00,
2013-04-26 07:20:00,37.5,33.7,30.43,ENE,71,0.0,0.0,86,0.00,,,0.00,HR-IXPWINDi_r2_v1.2.,2013-04-26 11:20:00,
2013-04-26 07:26:00,37.7,33.6,30.44,ENE,71,0.0,0.0,85,0.00,,,0.00,HR-IXPWINDi_r2_v1.2.,2013-04-26 11:26:00,
2013-04-26 07:31:00,37.9,33.8,30.44,SSE,148,0.0,2.0,85,0.00,,,0.00,HR-IXPWINDi_r2_v1.2.,2013-04-26 11:31:00,
2013-04-26 07:36:00,38.2,34.1,30.44,SSE,148,0.0,2.0,85,0.00,,,0.00,HR-IXPWINDi_r2_v1.2.,2013-04-26 11:36:00,
2013-04-26 07:41:00,38.3,34.2,30.44,SSE,148,0.0,0.0,85,0.00,,,0.00,HR-IXPWINDi_r2_v1.2.,2013-04-26 11:41:00,
2013-04-26 07:46:00,38.6,34.4,30.45,SSE,148,0.0,0.0,85,0.00,,,0.00,HR-IXPWINDi_r2_v1.2.,2013-04-26 11:46:00,
2013-04-26 07:51:00,39.0,34.8,30.45,SSE,148,0.0,0.0,85,0.00,,,0.00,HR-IXPWINDi_r2_v1.2.,2013-04-26 11:51:00,
2013-04-26 07:56:00,39.5,35.0,30.45,SSE,148,0.0,0.0,84,0.00,,,0.00,HR-IXPWINDi_r2_v1.2.,2013-04-26 11:56:00,
2013-04-26 08:01:00,40.1,35.6,30.46,SSE,148,0.0,0.0,84,0.00,,,0.00,HR-IXPWINDi_r2_v1.2.,2013-04-26 12:01:00,
2013-04-26 08:07:00,40.4,35.3,30.46,SSE,148,0.0,0.0,82,0.00,,,0.00,HR-IXPWINDi_r2_v1.2.,2013-04-26 12:07:00,
2013-04-26 08:12:00,40.8,35.7,30.46,SSE,148,0.0,0.0,82,0.00,,,0.00,HR-IXPWINDi_r2_v1.2.,2013-04-26 12:12:00,
2013-04-26 08:17:00,41.4,35.7,30.46,SSE,148,0.0,0.0,80,0.00,,,0.00,HR-IXPWINDi_r2_v1.2.,2013-04-26 12:17:00,
2013-04-26 08:23:00,41.9,35.8,30.47,SSE,148,0.0,0.0,79,0.00,,,0.00,HR-IXPWINDi_r2_v1.2.,2013-04-26 12:23:00,
2013-04-26 08:28:00,42.2,35.8,30.47,SSE,148,0.0,0.0,78,0.00,,,0.00,HR-IXPWINDi_r2_v1.2.,2013-04-26 12:28:00,
2013-04-26 08:33:00,42.9,36.1,30.47,SSE,148,0.0,0.0,77,0.00,,,0.00,HR-IXPWINDi_r2_v1.2.,2013-04-26 12:33:00,
2013-04-26 08:38:00,43.6,36.5,30.47,SSE,148,0.0,0.0,76,0.00,,,0.00,HR-IXPWINDi_r2_v1.2.,2013-04-26 12:38:00,
2013-04-26 08:43:00,44.4,36.9,30.47,SSE,148,0.0,0.0,75,0.00,,,0.00,HR-IXPWINDi_r2_v1.2.,2013-04-26 12:43:00,
2013-04-26 08:48:00,45.3,36.8,30.47,SSE,148,0.0,0.0,72,0.00,,,0.00,HR-IXPWINDi_r2_v1.2.,2013-04-26 12:48:00,
2013-04-26 08:53:00,46.2,36.9,30.48,SSE,148,0.0,0.0,70,0.00,,,0.00,HR-IXPWINDi_r2_v1.2.,2013-04-26 12:53:00,
2013-04-26 08:59:00,47.0,38.0,30.48,SSE,148,0.0,0.0,71,0.00,,,0.00,HR-IXPWINDi_r2_v1.2.,2013-04-26 12:59:00,
2013-04-26 09:04:00,48.2,38.1,30.48,SSE,148,0.0,0.0,68,0.00,,,0.00,HR-IXPWINDi_r2_v1.2.,2013-04-26 13:04:00,
2013-04-26 09:09:00,49.3,38.8,30.48,SSE,148,0.0,0.0,67,0.00,,,0.00,HR-IXPWINDi_r2_v1.2.,2013-04-26 13:09:00,
2013-04-26 09:14:00,50.8,39.4,30.48,SSE,148,0.0,1.0,65,0.00,,,0.00,HR-IXPWINDi_r2_v1.2.,2013-04-26 13:14:00,
2013-04-26 09:19:00,52.1,38.2,30.48,NE,44,1.0,1.0,59,0.00,,,0.00,HR-IXPWINDi_r2_v1.2.,2013-04-26 13:19:00,
2013-04-26 09:24:00,53.6,38.7,30.48,NE,44,0.0,1.0,57,0.00,,,0.00,HR-IXPWINDi_r2_v1.2.,2013-04-26 13:24:00,
2013-04-26 09:30:00,54.8,39.8,30.48,NE,44,0.0,1.0,57,0.00,,,0.00,HR-IXPWINDi_r2_v1.2.,2013-04-26 13:30:00,
2013-04-26 09:35:00,55.6,38.2,30.48,East,96,1.0,2.0,52,0.00,,,0.00,HR-IXPWINDi_r2_v1.2.,2013-04-26 13:35:00,
2013-04-26 09:40:00,56.0,38.1,30.48,East,98,0.0,2.0,51,0.00,,,0.00,HR-IXPWINDi_r2_v1.2.,2013-04-26 13:40:00,
2013-04-26 09:45:00,56.6,38.1,30.48,ESE,106,1.0,2.0,50,0.00,,,0.00,HR-IXPWINDi_r2_v1.2.,2013-04-26 13:45:00,
2013-04-26 09:50:00,57.1,37.6,30.48,SE,145,2.0,2.0,48,0.00,,,0.00,HR-IXPWINDi_r2_v1.2.,2013-04-26 13:50:00,
2013-04-26 09:56:00,57.4,38.4,30.47,SE,145,0.0,2.0,49,0.00,,,0.00,HR-IXPWINDi_r2_v1.2.,2013-04-26 13:56:00,
2013-04-26 10:01:00,57.7,36.5,30.47,SSE,150,0.0,2.0,45,0.00,,,0.00,HR-IXPWINDi_r2_v1.2.,2013-04-26 14:01:00,
2013-04-26 10:06:00,58.2,37.5,30.47,SSE,150,0.0,1.0,46,0.00,,,0.00,HR-IXPWINDi_r2_v1.2.,2013-04-26 14:06:00,
2013-04-26 10:11:00,58.6,40.0,30.47,ESE,107,0.0,2.0,50,0.00,,,0.00,HR-IXPWINDi_r2_v1.2.,2013-04-26 14:11:00,
2013-04-26 10:16:00,58.7,37.9,30.48,NW,325,2.0,2.0,46,0.00,,,0.00,HR-IXPWINDi_r2_v1.2.,2013-04-26 14:16:00,
2013-04-26 10:22:00,58.4,37.7,30.48,WNW,288,0.0,3.0,46,0.00,,,0.00,HR-IXPWINDi_r2_v1.2.,2013-04-26 14:22:00,
2013-04-26 10:27:00,58.7,37.9,30.48,ESE,109,0.0,3.0,46,0.00,,,0.00,HR-IXPWINDi_r2_v1.2.,2013-04-26 14:27:00,
2013-04-26 10:32:00,58.9,37.6,30.48,SE,125,0.0,2.0,45,0.00,,,0.00,HR-IXPWINDi_r2_v1.2.,2013-04-26 14:32:00,
2013-04-26 10:37:00,59.4,40.2,30.47,WNW,294,1.0,2.0,49,0.00,,,0.00,HR-IXPWINDi_r2_v1.2.,2013-04-26 14:37:00,
2013-04-26 10:42:00,59.9,38.5,30.47,East,88,1.0,2.0,45,0.00,,,0.00,HR-IXPWINDi_r2_v1.2.,2013-04-26 14:42:00,
2013-04-26 10:47:00,60.0,39.1,30.47,North,5,0.0,2.0,46,0.00,,,0.00,HR-IXPWINDi_r2_v1.2.,2013-04-26 14:47:00,
2013-04-26 10:52:00,60.4,41.1,30.47,East,81,0.0,2.0,49,0.00,,,0.00,HR-IXPWINDi_r2_v1.2.,2013-04-26 14:52:00,
2013-04-26 10:57:00,60.6,38.5,30.46,ESE,104,1.0,6.0,44,0.00,,,0.00,HR-IXPWINDi_r2_v1.2.,2013-04-26 14:57:00,
2013-04-26 11:03:00,60.7,41.4,30.45,ESE,111,0.0,6.0,49,0.00,,,0.00,HR-IXPWINDi_r2_v1.2.,2013-04-26 15:03:00,
2013-04-26 11:08:00,60.8,39.9,30.45,SE,140,2.0,3.0,46,0.00,,,0.00,HR-IXPWINDi_r2_v1.2.,2013-04-26 15:08:00,
2013-04-26 11:13:00,60.8,38.1,30.46,North,355,2.0,3.0,43,0.00,,,0.00,HR-IXPWINDi_r2_v1.2.,2013-04-26 15:13:00,
2013-04-26 11:18:00,60.4,40.6,30.46,ENE,77,0.0,4.0,48,0.00,,,0.00,HR-IXPWINDi_r2_v1.2.,2013-04-26 15:18:00,
2013-04-26 11:23:00,60.4,38.9,30.46,ESE,117,2.0,4.0,45,0.00,,,0.00,HR-IXPWINDi_r2_v1.2.,2013-04-26 15:23:00,
2013-04-26 11:28:00,60.6,37.3,30.46,WSW,252,0.0,4.0,42,0.00,,,0.00,HR-IXPWINDi_r2_v1.2.,2013-04-26 15:28:00,
2013-04-26 11:34:00,60.9,38.2,30.46,SE,128,0.0,4.0,43,0.00,,,0.00,HR-IXPWINDi_r2_v1.2.,2013-04-26 15:34:00,
2013-04-26 11:39:00,61.3,38.6,30.46,SE,124,0.0,3.0,43,0.00,,,0.00,HR-IXPWINDi_r2_v1.2.,2013-04-26 15:39:00,
2013-04-26 11:44:00,61.6,38.9,30.45,ENE,74,0.0,3.0,43,0.00,,,0.00,HR-IXPWINDi_r2_v1.2.,2013-04-26 15:44:00,
2013-04-26 11:49:00,61.5,36.9,30.46,ESE,109,3.0,3.0,40,0.00,,,0.00,HR-IXPWINDi_r2_v1.2.,2013-04-26 15:49:00,
2013-04-26 11:55:00,61.6,38.2,30.45,SSE,153,1.0,3.0,42,0.00,,,0.00,HR-IXPWINDi_r2_v1.2.,2013-04-26 15:55:00,
2013-04-26 12:00:00,61.8,38.4,30.45,West,281,0.0,3.0,42,0.00,,,0.00,HR-IXPWINDi_r2_v1.2.,2013-04-26 16:00:00,
2013-04-26 12:05:00,62.1,38.7,30.44,ENE,63,1.0,5.0,42,0.00,,,0.00,HR-IXPWINDi_r2_v1.2.,2013-04-26 16:05:00,
2013-04-26 12:10:00,62.4,38.4,30.44,East,86,1.0,5.0,41,0.00,,,0.00,HR-IXPWINDi_r2_v1.2.,2013-04-26 16:10:00,
2013-04-26 12:15:00,62.1,36.2,30.44,ENE,60,1.0,4.0,38,0.00,,,0.00,HR-IXPWINDi_r2_v1.2.,2013-04-26 16:15:00,
2013-04-26 12:21:00,61.9,40.9,30.44,NNW,332,0.0,5.0,46,0.00,,,0.00,HR-IXPWINDi_r2_v1.2.,2013-04-26 16:21:00,
2013-04-26 12:26:00,62.4,35.1,30.43,NNW,332,0.0,5.0,36,0.00,,,0.00,HR-IXPWINDi_r2_v1.2.,2013-04-26 16:26:00,
2013-04-26 12:31:00,62.7,41.0,30.43,ENE,59,1.0,3.0,45,0.00,,,0.00,HR-IXPWINDi_r2_v1.2.,2013-04-26 16:31:00,
2013-04-26 12:37:00,63.2,36.5,30.43,ESE,105,0.0,3.0,37,0.00,,,0.00,HR-IXPWINDi_r2_v1.2.,2013-04-26 16:37:00,
2013-04-26 12:42:00,63.6,36.8,30.43,ESE,114,1.0,3.0,37,0.00,,,0.00,HR-IXPWINDi_r2_v1.2.,2013-04-26 16:42:00,
2013-04-26 12:47:00,63.7,37.6,30.42,NW,320,3.0,4.0,38,0.00,,,0.00,HR-IXPWINDi_r2_v1.2.,2013-04-26 16:47:00,
2013-04-26 12:52:00,63.8,39.6,30.43,WNW,289,0.0,4.0,41,0.00,,,0.00,HR-IXPWINDi_r2_v1.2.,2013-04-26 16:52:00,
2013-04-26 12:58:00,64.1,36.6,30.43,SSE,156,2.0,4.0,36,0.00,,,0.00,HR-IXPWINDi_r2_v1.2.,2013-04-26 16:58:00,
2013-04-26 13:03:00,64.1,42.9,30.43,SSE,167,0.0,5.0,46,0.00,,,0.00,HR-IXPWINDi_r2_v1.2.,2013-04-26 17:03:00,
2013-04-26 13:08:00,64.1,35.1,30.43,NW,315,0.0,5.0,34,0.00,,,0.00,HR-IXPWINDi_r2_v1.2.,2013-04-26 17:08:00,
2013-04-26 13:13:00,63.5,35.3,30.43,North,355,4.0,5.0,35,0.00,,,0.00,HR-IXPWINDi_r2_v1.2.,2013-04-26 17:13:00,
2013-04-26 13:18:00,64.0,36.5,30.43,NNE,17,1.0,4.0,36,0.00,,,0.00,HR-IXPWINDi_r2_v1.2.,2013-04-26 17:18:00,
2013-04-26 13:23:00,63.6,35.4,30.43,SE,124,3.0,5.0,35,0.00,,,0.00,HR-IXPWINDi_r2_v1.2.,2013-04-26 17:23:00,
2013-04-26 13:29:00,64.0,35.8,30.43,East,99,1.0,5.0,35,0.00,,,0.00,HR-IXPWINDi_r2_v1.2.,2013-04-26 17:29:00,
2013-04-26 13:34:00,64.9,35.8,30.43,NW,311,4.0,5.0,34,0.00,,,0.00,HR-IXPWINDi_r2_v1.2.,2013-04-26 17:34:00,
2013-04-26 13:39:00,64.6,36.3,30.43,WNW,289,0.0,5.0,35,0.00,,,0.00,HR-IXPWINDi_r2_v1.2.,2013-04-26 17:39:00,
2013-04-26 13:44:00,64.8,37.2,30.43,ESE,103,1.0,5.0,36,0.00,,,0.00,HR-IXPWINDi_r2_v1.2.,2013-04-26 17:44:00,
2013-04-26 13:50:00,65.4,37.0,30.42,NNW,334,1.0,6.0,35,0.00,,,0.00,HR-IXPWINDi_r2_v1.2.,2013-04-26 17:50:00,
2013-04-26 13:55:00,65.2,36.8,30.42,North,355,2.0,6.0,35,0.00,,,0.00,HR-IXPWINDi_r2_v1.2.,2013-04-26 17:55:00,
2013-04-26 14:00:00,65.5,39.9,30.42,NW,311,4.0,6.0,39,0.00,,,0.00,HR-IXPWINDi_r2_v1.2.,2013-04-26 18:00:00,
2013-04-26 14:05:00,65.4,37.7,30.42,NW,323,0.0,5.0,36,0.00,,,0.00,HR-IXPWINDi_r2_v1.2.,2013-04-26 18:05:00,
2013-04-26 14:10:00,66.1,38.3,30.42,NW,316,0.0,4.0,36,0.00,,,0.00,HR-IXPWINDi_r2_v1.2.,2013-04-26 18:10:00,
2013-04-26 14:16:00,66.5,38.7,30.41,ENE,76,2.0,4.0,36,0.00,,,0.00,HR-IXPWINDi_r2_v1.2.,2013-04-26 18:16:00,
2013-04-26 14:21:00,66.8,38.2,30.41,North,5,1.0,4.0,35,0.00,,,0.00,HR-IXPWINDi_r2_v1.2.,2013-04-26 18:21:00,
2013-04-26 14:26:00,67.2,37.1,30.41,NNE,26,0.0,2.0,33,0.00,,,0.00,HR-IXPWINDi_r2_v1.2.,2013-04-26 18:26:00,
2013-04-26 14:32:00,67.4,38.8,30.41,SE,135,0.0,3.0,35,0.00,,,0.00,HR-IXPWINDi_r2_v1.2.,2013-04-26 18:32:00,
2013-04-26 14:37:00,66.9,37.6,30.41,North,351,1.0,3.0,34,0.00,,,0.00,HR-IXPWINDi_r2_v1.2.,2013-04-26 18:37:00,
2013-04-26 14:42:00,67.1,41.9,30.41,East,96,1.0,3.0,40,0.00,,,0.00,HR-IXPWINDi_r2_v1.2.,2013-04-26 18:42:00,
2013-04-26 14:47:00,67.6,39.7,30.40,ESE,108,1.0,3.0,36,0.00,,,0.00,HR-IXPWINDi_r2_v1.2.,2013-04-26 18:47:00,
2013-04-26 14:52:00,67.7,39.0,30.40,SSW,196,0.0,6.0,35,0.00,,,0.00,HR-IXPWINDi_r2_v1.2.,2013-04-26 18:52:00,
2013-04-26 14:58:00,68.2,38.7,30.40,ESE,113,1.0,6.0,34,0.00,,,0.00,HR-IXPWINDi_r2_v1.2.,2013-04-26 18:58:00,
2013-04-26 15:03:00,68.4,38.1,30.39,NE,51,1.0,3.0,33,0.00,,,0.00,HR-IXPWINDi_r2_v1.2.,2013-04-26 19:03:00,
2013-04-26 15:08:00,68.3,38.1,30.39,ESE,122,3.0,8.0,33,0.00,,,0.00,HR-IXPWINDi_r2_v1.2.,2013-04-26 19:08:00,
2013-04-26 15:13:00,67.9,40.6,30.39,SE,133,3.0,8.0,37,0.00,,,0.00,HR-IXPWINDi_r2_v1.2.,2013-04-26 19:13:00,
2013-04-26 15:18:00,67.7,39.0,30.39,ESE,110,3.0,8.0,35,0.00,,,0.00,HR-IXPWINDi_r2_v1.2.,2013-04-26 19:18:00,
2013-04-26 15:23:00,67.7,40.5,30.38,East,97,1.0,5.0,37,0.00,,,0.00,HR-IXPWINDi_r2_v1.2.,2013-04-26 19:23:00,
2013-04-26 15:28:00,67.8,39.8,30.38,East,98,2.0,5.0,36,0.00,,,0.00,HR-IXPWINDi_r2_v1.2.,2013-04-26 19:28:00,
2013-04-26 15:33:00,68.2,42.9,30.38,ESE,109,0.0,3.0,40,0.00,,,0.00,HR-IXPWINDi_r2_v1.2.,2013-04-26 19:33:00,
2013-04-26 15:39:00,68.6,40.5,30.37,East,99,2.0,5.0,36,0.00,,,0.00,HR-IXPWINDi_r2_v1.2.,2013-04-26 19:39:00,
2013-04-26 15:44:00,68.7,42.0,30.37,ESE,114,2.0,5.0,38,0.00,,,0.00,HR-IXPWINDi_r2_v1.2.,2013-04-26 19:44:00,
2013-04-26 15:49:00,68.9,41.5,30.37,East,95,0.0,5.0,37,0.00,,,0.00,HR-IXPWINDi_r2_v1.2.,2013-04-26 19:49:00,
2013-04-26 15:54:00,68.7,39.2,30.37,East,96,0.0,3.0,34,0.00,,,0.00,HR-IXPWINDi_r2_v1.2.,2013-04-26 19:54:00,
2013-04-26 15:59:00,68.4,40.4,30.36,ESE,107,1.0,2.0,36,0.00,,,0.00,HR-IXPWINDi_r2_v1.2.,2013-04-26 19:59:00,
2013-04-26 16:05:00,68.2,40.9,30.36,ESE,107,0.0,2.0,37,0.00,,,0.00,HR-IXPWINDi_r2_v1.2.,2013-04-26 20:05:00,
2013-04-26 16:10:00,68.0,42.1,30.36,ESE,121,0.0,3.0,39,0.00,,,0.00,HR-IXPWINDi_r2_v1.2.,2013-04-26 20:10:00,
2013-04-26 16:15:00,68.0,40.0,30.35,ESE,119,0.0,4.0,36,0.00,,,0.00,HR-IXPWINDi_r2_v1.2.,2013-04-26 20:15:00,
2013-04-26 16:20:00,68.0,40.0,30.35,ESE,114,1.0,4.0,36,0.00,,,0.00,HR-IXPWINDi_r2_v1.2.,2013-04-26 20:20:00,
2013-04-26 16:26:00,68.3,40.3,30.35,ESE,109,2.0,3.0,36,0.00,,,0.00,HR-IXPWINDi_r2_v1.2.,2013-04-26 20:26:00,
2013-04-26 16:31:00,68.0,41.4,30.35,ESE,121,0.0,5.0,38,0.00,,,0.00,HR-IXPWINDi_r2_v1.2.,2013-04-26 20:31:00,
2013-04-26 16:36:00,68.0,40.7,30.35,SE,134,0.0,5.0,37,0.00,,,0.00,HR-IXPWINDi_r2_v1.2.,2013-04-26 20:36:00,
2013-04-26 16:41:00,67.9,38.5,30.35,East,99,0.0,5.0,34,0.00,,,0.00,HR-IXPWINDi_r2_v1.2.,2013-04-26 20:41:00,
2013-04-26 16:46:00,67.6,40.4,30.35,SE,128,0.0,5.0,37,0.00,,,0.00,HR-IXPWINDi_r2_v1.2.,2013-04-26 20:46:00,
2013-04-26 16:51:00,67.6,38.9,30.34,East,100,0.0,5.0,35,0.00,,,0.00,HR-IXPWINDi_r2_v1.2.,2013-04-26 20:51:00,
2013-04-26 16:56:00,67.6,39.7,30.34,ESE,103,0.0,4.0,36,0.00,,,0.00,HR-IXPWINDi_r2_v1.2.,2013-04-26 20:56:00,
2013-04-26 17:02:00,67.5,41.6,30.34,ESE,105,2.0,4.0,39,0.00,,,0.00,HR-IXPWINDi_r2_v1.2.,2013-04-26 21:02:00,
2013-04-26 17:07:00,67.2,40.0,30.33,SE,125,1.0,3.0,37,0.00,,,0.00,HR-IXPWINDi_r2_v1.2.,2013-04-26 21:07:00,
2013-04-26 17:12:00,67.0,38.4,30.33,ESE,109,0.0,5.0,35,0.00,,,0.00,HR-IXPWINDi_r2_v1.2.,2013-04-26 21:12:00,
2013-04-26 17:18:00,66.9,40.4,30.33,ESE,117,1.0,5.0,38,0.00,,,0.00,HR-IXPWINDi_r2_v1.2.,2013-04-26 21:18:00,
2013-04-26 17:23:00,67.0,39.8,30.33,SE,124,0.0,2.0,37,0.00,,,0.00,HR-IXPWINDi_r2_v1.2.,2013-04-26 21:23:00,
2013-04-26 17:28:00,67.0,39.8,30.33,ESE,122,1.0,2.0,37,0.00,,,0.00,HR-IXPWINDi_r2_v1.2.,2013-04-26 21:28:00,
2013-04-26 17:33:00,66.9,40.4,30.33,SE,132,0.0,2.0,38,0.00,,,0.00,HR-IXPWINDi_r2_v1.2.,2013-04-26 21:33:00,
2013-04-26 17:38:00,66.7,40.3,30.33,ESE,122,1.0,2.0,38,0.00,,,0.00,HR-IXPWINDi_r2_v1.2.,2013-04-26 21:38:00,
2013-04-26 17:43:00,66.5,40.7,30.33,ESE,121,0.0,2.0,39,0.00,,,0.00,HR-IXPWINDi_r2_v1.2.,2013-04-26 21:43:00,
2013-04-26 17:49:00,66.4,40.7,30.33,ESE,112,0.0,2.0,39,0.00,,,0.00,HR-IXPWINDi_r2_v1.2.,2013-04-26 21:49:00,
2013-04-26 17:54:00,66.1,39.7,30.33,East,101,0.0,3.0,38,0.00,,,0.00,HR-IXPWINDi_r2_v1.2.,2013-04-26 21:54:00,
2013-04-26 17:59:00,65.8,38.1,30.33,ESE,111,0.0,3.0,36,0.00,,,0.00,HR-IXPWINDi_r2_v1.2.,2013-04-26 21:59:00,
2013-04-26 18:04:00,65.6,37.9,30.33,ESE,118,0.0,4.0,36,0.00,,,0.00,HR-IXPWINDi_r2_v1.2.,2013-04-26 22:04:00,
2013-04-26 18:10:00,65.4,38.4,30.33,SE,134,0.0,5.0,37,0.00,,,0.00,HR-IXPWINDi_r2_v1.2.,2013-04-26 22:10:00,
2013-04-26 18:15:00,65.2,38.2,30.33,East,92,3.0,5.0,37,0.00,,,0.00,HR-IXPWINDi_r2_v1.2.,2013-04-26 22:15:00,
2013-04-26 18:20:00,65.2,38.2,30.33,South,171,2.0,6.0,37,0.00,,,0.00,HR-IXPWINDi_r2_v1.2.,2013-04-26 22:20:00,
2013-04-26 18:25:00,65.0,38.7,30.34,ESE,105,0.0,6.0,38,0.00,,,0.00,HR-IXPWINDi_r2_v1.2.,2013-04-26 22:25:00,
2013-04-26 18:30:00,64.9,38.0,30.34,East,101,0.0,4.0,37,0.00,,,0.00,HR-IXPWINDi_r2_v1.2.,2013-04-26 22:30:00,
2013-04-26 18:35:00,64.8,39.2,30.34,ESE,109,1.0,3.0,39,0.00,,,0.00,HR-IXPWINDi_r2_v1.2.,2013-04-26 22:35:00,
2013-04-26 18:40:00,64.7,39.1,30.34,East,97,0.0,2.0,39,0.00,,,0.00,HR-IXPWINDi_r2_v1.2.,2013-04-26 22:40:00,
2013-04-26 18:45:00,64.6,38.4,30.34,ESE,103,0.0,2.0,38,0.00,,,0.00,HR-IXPWINDi_r2_v1.2.,2013-04-26 22:45:00,
2013-04-26 18:51:00,64.5,39.0,30.34,East,91,2.0,2.0,39,0.00,,,0.00,HR-IXPWINDi_r2_v1.2.,2013-04-26 22:51:00,
2013-04-26 18:56:00,64.4,38.9,30.35,ESE,102,1.0,3.0,39,0.00,,,0.00,HR-IXPWINDi_r2_v1.2.,2013-04-26 22:56:00,
2013-04-26 19:01:00,64.3,38.8,30.35,East,99,1.0,3.0,39,0.00,,,0.00,HR-IXPWINDi_r2_v1.2.,2013-04-26 23:01:00,
2013-04-26 19:06:00,64.1,39.3,30.35,East,98,2.0,3.0,40,0.00,,,0.00,HR-IXPWINDi_r2_v1.2.,2013-04-26 23:06:00,
2013-04-26 19:12:00,63.8,37.7,30.35,SE,130,0.0,7.0,38,0.00,,,0.00,HR-IXPWINDi_r2_v1.2.,2013-04-26 23:12:00,
2013-04-26 19:17:00,63.7,38.2,30.35,ESE,109,0.0,7.0,39,0.00,,,0.00,HR-IXPWINDi_r2_v1.2.,2013-04-26 23:17:00,
2013-04-26 19:22:00,63.6,38.8,30.35,East,98,0.0,3.0,40,0.00,,,0.00,HR-IXPWINDi_r2_v1.2.,2013-04-26 23:22:00,
2013-04-26 19:27:00,63.4,38.6,30.35,ESE,107,0.0,3.0,40,0.00,,,0.00,HR-IXPWINDi_r2_v1.2.,2013-04-26 23:27:00,
2013-04-26 19:32:00,63.2,38.4,30.35,ESE,106,0.0,2.0,40,0.00,,,0.00,HR-IXPWINDi_r2_v1.2.,2013-04-26 23:32:00,
2013-04-26 19:37:00,63.1,38.4,30.36,SE,131,0.0,2.0,40,0.00,,,0.00,HR-IXPWINDi_r2_v1.2.,2013-04-26 23:37:00,
2013-04-26 19:42:00,62.9,38.8,30.36,SE,132,1.0,1.0,41,0.00,,,0.00,HR-IXPWINDi_r2_v1.2.,2013-04-26 23:42:00,
2013-04-26 19:47:00,62.6,38.5,30.36,ESE,108,0.0,1.0,41,0.00,,,0.00,HR-IXPWINDi_r2_v1.2.,2013-04-26 23:47:00,
2013-04-26 19:52:00,62.3,38.9,30.36,ESE,108,0.0,1.0,42,0.00,,,0.00,HR-IXPWINDi_r2_v1.2.,2013-04-26 23:52:00,
2013-04-26 20:06:00,61.5,39.3,30.37,ESE,108,0.0,0.0,44,0.00,,,0.00,HR-IXPWINDi_r2_v1.2.,2013-04-27 00:06:00,
2013-04-26 20:11:00,61.1,39.6,30.37,ESE,108,0.0,0.0,45,0.00,,,0.00,HR-IXPWINDi_r2_v1.2.,2013-04-27 00:11:00,
2013-04-26 20:16:00,60.5,39.6,30.37,ESE,108,0.0,0.0,46,0.00,,,0.00,HR-IXPWINDi_r2_v1.2.,2013-04-27 00:16:00,
2013-04-26 20:21:00,60.0,39.7,30.37,ESE,108,0.0,0.0,47,0.00,,,0.00,HR-IXPWINDi_r2_v1.2.,2013-04-27 00:21:00,
2013-04-26 20:26:00,59.6,39.3,30.37,ESE,108,0.0,0.0,47,0.00,,,0.00,HR-IXPWINDi_r2_v1.2.,2013-04-27 00:26:00,
2013-04-26 20:31:00,59.1,39.9,30.37,ESE,108,0.0,0.0,49,0.00,,,0.00,HR-IXPWINDi_r2_v1.2.,2013-04-27 00:31:00,
2013-04-26 20:37:00,58.7,40.6,30.37,ESE,108,0.0,0.0,51,0.00,,,0.00,HR-IXPWINDi_r2_v1.2.,2013-04-27 00:37:00,
2013-04-26 20:42:00,58.2,40.1,30.37,ESE,108,0.0,0.0,51,0.00,,,0.00,HR-IXPWINDi_r2_v1.2.,2013-04-27 00:42:00,
2013-04-26 20:47:00,57.8,41.7,30.37,ESE,108,0.0,0.0,55,0.00,,,0.00,HR-IXPWINDi_r2_v1.2.,2013-04-27 00:47:00,
2013-04-26 20:53:00,57.2,41.6,30.37,ESE,108,0.0,0.0,56,0.00,,,0.00,HR-IXPWINDi_r2_v1.2.,2013-04-27 00:53:00,
2013-04-26 20:58:00,56.7,40.2,30.38,ESE,108,0.0,0.0,54,0.00,,,0.00,HR-IXPWINDi_r2_v1.2.,2013-04-27 00:58:00,
2013-04-26 21:03:00,56.3,40.3,30.38,ESE,108,0.0,0.0,55,0.00,,,0.00,HR-IXPWINDi_r2_v1.2.,2013-04-27 01:03:00,
2013-04-26 21:08:00,55.8,40.3,30.38,ESE,108,0.0,0.0,56,0.00,,,0.00,HR-IXPWINDi_r2_v1.2.,2013-04-27 01:08:00,
2013-04-26 21:13:00,55.4,39.9,30.38,ESE,108,0.0,0.0,56,0.00,,,0.00,HR-IXPWINDi_r2_v1.2.,2013-04-27 01:13:00,
2013-04-26 21:19:00,55.1,40.5,30.38,ESE,108,0.0,0.0,58,0.00,,,0.00,HR-IXPWINDi_r2_v1.2.,2013-04-27 01:19:00,
2013-04-26 21:24:00,54.8,40.3,30.39,ESE,108,0.0,0.0,58,0.00,,,0.00,HR-IXPWINDi_r2_v1.2.,2013-04-27 01:24:00,
2013-04-26 21:29:00,54.5,40.0,30.39,ESE,108,0.0,0.0,58,0.00,,,0.00,HR-IXPWINDi_r2_v1.2.,2013-04-27 01:29:00,
2013-04-26 21:34:00,54.2,40.1,30.39,ESE,108,0.0,0.0,59,0.00,,,0.00,HR-IXPWINDi_r2_v1.2.,2013-04-27 01:34:00,
2013-04-26 21:39:00,54.0,40.4,30.38,ESE,108,0.0,0.0,60,0.00,,,0.00,HR-IXPWINDi_r2_v1.2.,2013-04-27 01:39:00,
2013-04-26 21:45:00,53.7,40.1,30.39,ESE,108,0.0,0.0,60,0.00,,,0.00,HR-IXPWINDi_r2_v1.2.,2013-04-27 01:45:00,
2013-04-26 21:50:00,53.5,39.9,30.39,ESE,108,0.0,0.0,60,0.00,,,0.00,HR-IXPWINDi_r2_v1.2.,2013-04-27 01:50:00,
2013-04-26 21:55:00,53.4,39.8,30.39,ESE,108,0.0,1.0,60,0.00,,,0.00,HR-IXPWINDi_r2_v1.2.,2013-04-27 01:55:00,
2013-04-26 22:00:00,53.3,40.6,30.39,ESE,108,0.0,1.0,62,0.00,,,0.00,HR-IXPWINDi_r2_v1.2.,2013-04-27 02:00:00,
2013-04-26 22:05:00,53.2,39.6,30.39,ESE,108,0.0,0.0,60,0.00,,,0.00,HR-IXPWINDi_r2_v1.2.,2013-04-27 02:05:00,
2013-04-26 22:11:00,53.0,39.9,30.39,ESE,108,0.0,0.0,61,0.00,,,0.00,HR-IXPWINDi_r2_v1.2.,2013-04-27 02:11:00,
2013-04-26 22:16:00,52.9,40.2,30.39,ESE,108,0.0,0.0,62,0.00,,,0.00,HR-IXPWINDi_r2_v1.2.,2013-04-27 02:16:00,
2013-04-26 22:21:00,52.8,40.1,30.39,ESE,108,0.0,0.0,62,0.00,,,0.00,HR-IXPWINDi_r2_v1.2.,2013-04-27 02:21:00,
2013-04-26 22:27:00,52.6,40.3,30.39,ESE,108,0.0,0.0,63,0.00,,,0.00,HR-IXPWINDi_r2_v1.2.,2013-04-27 02:27:00,
2013-04-26 22:32:00,52.5,40.2,30.39,ESE,108,0.0,0.0,63,0.00,,,0.00,HR-IXPWINDi_r2_v1.2.,2013-04-27 02:32:00,
2013-04-26 22:37:00,52.5,40.6,30.39,ESE,108,0.0,0.0,64,0.00,,,0.00,HR-IXPWINDi_r2_v1.2.,2013-04-27 02:37:00,
2013-04-26 22:42:00,52.6,40.7,30.39,ESE,108,0.0,0.0,64,0.00,,,0.00,HR-IXPWINDi_r2_v1.2.,2013-04-27 02:42:00,
2013-04-26 22:47:00,52.6,40.3,30.39,ESE,108,0.0,0.0,63,0.00,,,0.00,HR-IXPWINDi_r2_v1.2.,2013-04-27 02:47:00,
2013-04-26 22:52:00,52.7,40.4,30.39,ESE,108,0.0,0.0,63,0.00,,,0.00,HR-IXPWINDi_r2_v1.2.,2013-04-27 02:52:00,
2013-04-26 22:58:00,52.6,40.3,30.39,ESE,108,0.0,0.0,63,0.00,,,0.00,HR-IXPWINDi_r2_v1.2.,2013-04-27 02:58:00,
2013-04-26 23:03:00,52.7,40.4,30.38,ESE,108,0.0,0.0,63,0.00,,,0.00,HR-IXPWINDi_r2_v1.2.,2013-04-27 03:03:00,
2013-04-26 23:08:00,52.7,40.8,30.39,ESE,108,0.0,0.0,64,0.00,,,0.00,HR-IXPWINDi_r2_v1.2.,2013-04-27 03:08:00,
2013-04-26 23:13:00,52.7,41.2,30.39,ESE,108,0.0,0.0,65,0.00,,,0.00,HR-IXPWINDi_r2_v1.2.,2013-04-27 03:13:00,
2013-04-26 23:19:00,52.6,39.9,30.39,ESE,108,0.0,0.0,62,0.00,,,0.00,HR-IXPWINDi_r2_v1.2.,2013-04-27 03:19:00,
2013-04-26 23:24:00,52.6,40.3,30.38,ESE,108,0.0,0.0,63,0.00,,,0.00,HR-IXPWINDi_r2_v1.2.,2013-04-27 03:24:00,
2013-04-26 23:29:00,52.7,40.8,30.38,ESE,108,0.0,0.0,64,0.00,,,0.00,HR-IXPWINDi_r2_v1.2.,2013-04-27 03:29:00,
2013-04-26 23:35:00,52.7,41.2,30.38,ESE,108,0.0,0.0,65,0.00,,,0.00,HR-IXPWINDi_r2_v1.2.,2013-04-27 03:35:00,
2013-04-26 23:40:00,52.7,41.2,30.38,ESE,108,0.0,0.0,65,0.00,,,0.00,HR-IXPWINDi_r2_v1.2.,2013-04-27 03:40:00,
2013-04-26 23:45:00,52.8,40.9,30.38,ESE,108,0.0,0.0,64,0.00,,,0.00,HR-IXPWINDi_r2_v1.2.,2013-04-27 03:45:00,
2013-04-26 23:50:00,52.8,40.9,30.38,ESE,108,0.0,0.0,64,0.00,,,0.00,HR-IXPWINDi_r2_v1.2.,2013-04-27 03:50:00,
2013-04-26 23:55:00,52.7,40.4,30.38,ESE,108,0.0,0.0,63,0.00,,,0.00,HR-IXPWINDi_r2_v1.2.,2013-04-27 03:55:00,